createdAt,value
2017-06-23T00:00:41.673Z,1001.65
2017-06-23T00:01:50.869Z,1001.7
2017-06-23T00:02:59.915Z,1001.73
2017-06-23T00:04:08.871Z,1001.71
2017-06-23T00:05:17.868Z,1001.66
2017-06-23T00:06:27.189Z,1001.68
2017-06-23T00:07:36.153Z,1001.64
2017-06-23T00:08:45.218Z,1001.62
2017-06-23T00:09:54.340Z,1001.6
2017-06-23T00:11:03.443Z,1001.62
2017-06-23T00:12:12.880Z,1001.65
2017-06-23T00:13:21.848Z,1001.63
2017-06-23T00:14:31.130Z,1001.63
2017-06-23T00:15:40.333Z,1001.69
2017-06-23T00:16:49.943Z,1001.64
2017-06-23T00:17:59.182Z,1001.6
2017-06-23T00:19:08.134Z,1001.54
2017-06-23T00:20:17.172Z,1001.54
2017-06-23T00:21:26.380Z,1001.54
2017-06-23T00:22:38.285Z,1001.57
2017-06-23T00:23:48.623Z,1001.55
2017-06-23T00:24:58.786Z,1001.53
2017-06-23T00:26:08.401Z,1001.56
2017-06-23T00:27:18.157Z,1001.52
2017-06-23T00:28:27.719Z,1001.52
2017-06-23T00:29:38.232Z,1001.46
2017-06-23T00:30:48.550Z,1001.49
2017-06-23T00:31:57.503Z,1001.43
2017-06-23T00:33:07.903Z,1001.38
2017-06-23T00:34:18.038Z,1001.32
2017-06-23T00:35:29.091Z,1001.3
2017-06-23T00:36:38.958Z,1001.25
2017-06-23T00:37:49.295Z,1001.28
2017-06-23T00:38:59.742Z,1001.32
2017-06-23T00:40:08.921Z,1001.39
2017-06-23T00:41:19.971Z,1001.37
2017-06-23T00:42:30.610Z,1001.31
2017-06-23T00:43:40.835Z,1001.25
2017-06-23T00:44:50.426Z,1001.31
2017-06-23T00:46:01.245Z,1001.3
2017-06-23T00:47:11.786Z,1001.34
2017-06-23T00:48:21.534Z,1001.36
2017-06-23T00:49:31.985Z,1001.34
2017-06-23T00:50:42.312Z,1001.36
2017-06-23T00:51:53.153Z,1001.37
2017-06-23T00:53:03.529Z,1001.37
2017-06-23T00:54:13.728Z,1001.33
2017-06-23T00:55:23.962Z,1001.36
2017-06-23T00:56:33.100Z,1001.37
2017-06-23T00:57:44.602Z,1001.33
2017-06-23T00:58:56.147Z,1001.3
2017-06-23T01:00:06.400Z,1001.29
2017-06-23T01:01:17.372Z,1001.35
2017-06-23T01:02:27.414Z,1001.36
2017-06-23T01:03:39.146Z,1001.36
2017-06-23T01:04:48.400Z,1001.33
2017-06-23T01:05:58.701Z,1001.36
2017-06-23T01:07:08.730Z,1001.4
2017-06-23T01:08:17.819Z,1001.51
2017-06-23T01:09:27.550Z,1001.58
2017-06-23T01:10:36.814Z,1001.58
2017-06-23T01:11:46.326Z,1001.63
2017-06-23T01:12:55.274Z,1001.64
2017-06-23T01:14:06.281Z,1001.71
2017-06-23T01:15:20.591Z,1001.76
2017-06-23T01:16:31.094Z,1001.78
2017-06-23T01:17:42.343Z,1001.79
2017-06-23T01:18:51.295Z,1001.76
2017-06-23T01:20:01.233Z,1001.73
2017-06-23T01:21:11.857Z,1001.66
2017-06-23T01:22:21.112Z,1001.74
2017-06-23T01:23:31.122Z,1001.84
2017-06-23T01:24:40.074Z,1001.98
2017-06-23T01:25:51.613Z,1002.02
2017-06-23T01:27:00.613Z,1002.04
2017-06-23T01:28:12.849Z,1002.01
2017-06-23T01:29:28.032Z,1002
2017-06-23T01:30:41.056Z,1002.01
2017-06-23T01:31:54.674Z,1002.02
2017-06-23T01:33:03.715Z,1001.9
2017-06-23T01:34:14.283Z,1001.79
2017-06-23T01:35:24.390Z,1001.69
2017-06-23T01:36:33.340Z,1001.67
2017-06-23T01:37:43.266Z,1001.68
2017-06-23T01:38:52.574Z,1001.77
2017-06-23T01:40:02.043Z,1001.83
2017-06-23T01:41:11.000Z,1001.81
2017-06-23T01:42:20.527Z,1001.84
2017-06-23T01:43:29.561Z,1001.9
2017-06-23T01:44:39.869Z,1002
2017-06-23T01:45:49.996Z,1002.19
2017-06-23T01:46:58.951Z,1002.17
2017-06-23T01:48:14.817Z,1002.16
2017-06-23T01:49:26.468Z,1002.06
2017-06-23T01:50:39.091Z,1001.98
2017-06-23T01:51:48.561Z,1001.88
2017-06-23T01:53:04.996Z,1001.79
2017-06-23T01:54:14.451Z,1001.77
2017-06-23T01:55:24.366Z,1001.77
2017-06-23T01:56:33.665Z,1001.73
2017-06-23T01:57:43.330Z,1001.76
2017-06-23T01:58:53.248Z,1001.7
2017-06-23T02:00:02.204Z,1001.54
2017-06-23T02:01:12.714Z,1001.54
2017-06-23T02:02:23.198Z,1001.61
2017-06-23T02:03:33.116Z,1001.63
2017-06-23T02:04:42.614Z,1001.67
2017-06-23T02:05:52.553Z,1001.65
2017-06-23T02:07:02.207Z,1001.64
2017-06-23T02:08:11.413Z,1001.59
2017-06-23T02:09:21.214Z,1001.62
2017-06-23T02:10:30.956Z,1001.69
2017-06-23T02:11:40.160Z,1001.74
2017-06-23T02:12:50.470Z,1001.8
2017-06-23T02:14:00.021Z,1001.92
2017-06-23T02:15:09.137Z,1002.03
2017-06-23T02:16:18.105Z,1002
2017-06-23T02:17:27.733Z,1002.04
2017-06-23T02:18:36.686Z,1002.16
2017-06-23T02:19:46.951Z,1002.2
2017-06-23T02:20:56.210Z,1002.27
2017-06-23T02:22:07.130Z,1002.35
2017-06-23T02:23:16.088Z,1002.46
2017-06-23T02:24:25.910Z,1002.45
2017-06-23T02:25:35.303Z,1002.43
2017-06-23T02:26:45.538Z,1002.39
2017-06-23T02:27:56.028Z,1002.47
2017-06-23T02:29:06.095Z,1002.51
2017-06-23T02:30:15.047Z,1002.54
2017-06-23T02:31:25.483Z,1002.59
2017-06-23T02:32:37.311Z,1002.62
2017-06-23T02:33:46.522Z,1002.63
2017-06-23T02:34:56.719Z,1002.64
2017-06-23T02:36:06.856Z,1002.66
2017-06-23T02:37:17.857Z,1002.59
2017-06-23T02:38:29.839Z,1002.57
2017-06-23T02:39:41.128Z,1002.59
2017-06-23T02:40:51.438Z,1002.59
2017-06-23T02:42:03.103Z,1002.69
2017-06-23T02:43:12.657Z,1002.71
2017-06-23T02:44:22.879Z,1002.68
2017-06-23T02:45:32.623Z,1002.62
2017-06-23T02:46:44.247Z,1002.63
2017-06-23T02:47:53.431Z,1002.6
2017-06-23T02:49:02.676Z,1002.58
2017-06-23T02:50:12.610Z,1002.51
2017-06-23T02:51:21.886Z,1002.39
2017-06-23T02:52:32.627Z,1002.26
2017-06-23T02:53:41.781Z,1002.22
2017-06-23T02:54:51.876Z,1002.21
2017-06-23T02:56:00.902Z,1002.1
2017-06-23T02:57:11.458Z,1002.11
2017-06-23T02:58:21.502Z,1002.01
2017-06-23T02:59:30.505Z,1001.99
2017-06-23T03:00:40.348Z,1001.93
2017-06-23T03:01:49.387Z,1001.92
2017-06-23T03:02:58.853Z,1001.98
2017-06-23T03:04:07.802Z,1001.96
2017-06-23T03:05:18.455Z,1002.01
2017-06-23T03:06:28.086Z,1002.03
2017-06-23T03:07:37.213Z,1002.06
2017-06-23T03:08:46.821Z,1002
2017-06-23T03:09:55.861Z,1001.98
2017-06-23T03:11:05.331Z,1001.92
2017-06-23T03:12:14.614Z,1001.87
2017-06-23T03:13:23.561Z,1001.84
2017-06-23T03:14:32.654Z,1001.89
2017-06-23T03:15:41.653Z,1001.87
2017-06-23T03:16:50.609Z,1001.88
2017-06-23T03:17:59.812Z,1001.93
2017-06-23T03:19:08.765Z,1001.93
2017-06-23T03:20:17.716Z,1001.84
2017-06-23T03:21:26.671Z,1001.83
2017-06-23T03:22:35.621Z,1001.84
2017-06-23T03:23:44.822Z,1001.96
2017-06-23T03:24:53.770Z,1001.98
2017-06-23T03:26:02.720Z,1002.03
2017-06-23T03:27:11.675Z,1002.08
2017-06-23T03:28:20.631Z,1002.13
2017-06-23T03:29:29.829Z,1002.16
2017-06-23T03:30:38.784Z,1002.16
2017-06-23T03:31:47.733Z,1002.15
2017-06-23T03:32:56.686Z,1002.1
2017-06-23T03:34:05.631Z,1002.1
2017-06-23T03:35:14.948Z,1002.05
2017-06-23T03:36:24.221Z,1002.05
2017-06-23T03:37:33.162Z,1002.08
2017-06-23T03:38:42.111Z,1002.11
2017-06-23T03:39:51.084Z,1002.15
2017-06-23T03:41:00.294Z,1002.15
2017-06-23T03:42:09.241Z,1002.08
2017-06-23T03:43:18.189Z,1002.07
2017-06-23T03:44:27.142Z,1002.03
2017-06-23T03:45:36.094Z,1002.04
2017-06-23T03:46:45.613Z,1002.05
2017-06-23T03:47:54.564Z,1002.06
2017-06-23T03:49:03.506Z,1002.05
2017-06-23T03:50:12.538Z,1002.08
2017-06-23T03:51:21.483Z,1002.07
2017-06-23T03:52:30.770Z,1002.12
2017-06-23T03:53:39.712Z,1002.09
2017-06-23T03:54:48.662Z,1002.13
2017-06-23T03:55:57.616Z,1002.13
2017-06-23T03:57:06.566Z,1002.13
2017-06-23T03:58:15.771Z,1002.14
2017-06-23T03:59:24.721Z,1002.17
2017-06-23T04:00:33.673Z,1002.19
2017-06-23T04:01:42.743Z,1002.22
2017-06-23T04:02:51.692Z,1002.27
2017-06-23T04:04:01.450Z,1002.34
2017-06-23T04:05:10.404Z,1002.32
2017-06-23T04:06:19.358Z,1002.27
2017-06-23T04:07:28.306Z,1002.22
2017-06-23T04:08:37.673Z,1002.18
2017-06-23T04:09:46.924Z,1002.18
2017-06-23T04:10:55.881Z,1002.23
2017-06-23T04:12:04.909Z,1002.22
2017-06-23T04:13:13.948Z,1002.28
2017-06-23T04:14:22.980Z,1002.34
2017-06-23T04:15:32.176Z,1002.35
2017-06-23T04:16:41.127Z,1002.34
2017-06-23T04:17:50.076Z,1002.39
2017-06-23T04:18:59.027Z,1002.46
2017-06-23T04:20:08.072Z,1002.49
2017-06-23T04:21:17.320Z,1002.55
2017-06-23T04:22:26.270Z,1002.52
2017-06-23T04:23:35.223Z,1002.51
2017-06-23T04:24:44.260Z,1002.53
2017-06-23T04:25:53.294Z,1002.55
2017-06-23T04:27:02.547Z,1002.58
2017-06-23T04:28:11.502Z,1002.61
2017-06-23T04:29:20.456Z,1002.58
2017-06-23T04:30:29.418Z,1002.56
2017-06-23T04:31:38.365Z,1002.59
2017-06-23T04:32:47.561Z,1002.64
2017-06-23T04:33:56.509Z,1002.63
2017-06-23T04:35:05.463Z,1002.61
2017-06-23T04:36:14.412Z,1002.64
2017-06-23T04:37:23.361Z,1002.67
2017-06-23T04:38:32.573Z,1002.66
2017-06-23T04:39:41.526Z,1002.64
2017-06-23T04:40:50.474Z,1002.7
2017-06-23T04:41:59.427Z,1002.71
2017-06-23T04:43:08.404Z,1002.71
2017-06-23T04:44:17.753Z,1002.63
2017-06-23T04:45:26.707Z,1002.63
2017-06-23T04:46:35.690Z,1002.61
2017-06-23T04:47:44.641Z,1002.61
2017-06-23T04:48:53.623Z,1002.65
2017-06-23T04:50:02.915Z,1002.64
2017-06-23T04:51:11.862Z,1002.73
2017-06-23T04:52:20.801Z,1002.72
2017-06-23T04:53:29.749Z,1002.78
2017-06-23T04:54:38.706Z,1002.79
2017-06-23T04:55:47.955Z,1002.75
2017-06-23T04:56:56.902Z,1002.78
2017-06-23T04:58:05.936Z,1002.69
2017-06-23T04:59:14.883Z,1002.71
2017-06-23T05:00:23.909Z,1002.74
2017-06-23T05:01:33.193Z,1002.78
2017-06-23T05:02:42.466Z,1002.78
2017-06-23T05:03:51.410Z,1002.72
2017-06-23T05:05:00.485Z,1002.78
2017-06-23T05:06:09.603Z,1002.76
2017-06-23T05:07:18.795Z,1002.81
2017-06-23T05:08:27.735Z,1002.82
2017-06-23T05:09:37.013Z,1002.8
2017-06-23T05:10:45.961Z,1002.8
2017-06-23T05:11:54.902Z,1002.82
2017-06-23T05:13:04.107Z,1002.79
2017-06-23T05:14:13.054Z,1002.77
2017-06-23T05:15:22.004Z,1002.82
2017-06-23T05:16:30.948Z,1002.79
2017-06-23T05:17:39.918Z,1002.81
2017-06-23T05:18:49.111Z,1002.83
2017-06-23T05:19:58.063Z,1002.84
2017-06-23T05:21:07.344Z,1002.87
2017-06-23T05:22:16.383Z,1002.86
2017-06-23T05:23:25.335Z,1002.89
2017-06-23T05:24:34.531Z,1002.88
2017-06-23T05:25:43.484Z,1002.85
2017-06-23T05:26:52.759Z,1002.84
2017-06-23T05:28:01.705Z,1002.83
2017-06-23T05:29:10.654Z,1002.83
2017-06-23T05:30:19.856Z,1002.88
2017-06-23T05:31:28.801Z,1002.85
2017-06-23T05:32:37.753Z,1002.88
2017-06-23T05:33:47.017Z,1002.9
2017-06-23T05:34:56.058Z,1002.94
2017-06-23T05:36:05.575Z,1002.93
2017-06-23T05:37:14.527Z,1002.96
2017-06-23T05:38:23.876Z,1002.98
2017-06-23T05:39:32.826Z,1002.99
2017-06-23T05:40:41.778Z,1002.93
2017-06-23T05:41:50.983Z,1002.95
2017-06-23T05:42:59.936Z,1003.04
2017-06-23T05:44:08.974Z,1003.01
2017-06-23T05:45:18.010Z,1003.03
2017-06-23T05:46:26.961Z,1003.02
2017-06-23T05:47:36.169Z,1003.13
2017-06-23T05:48:45.126Z,1003.1
2017-06-23T05:49:54.068Z,1003.15
2017-06-23T05:51:03.342Z,1003.12
2017-06-23T05:52:12.297Z,1003.08
2017-06-23T05:53:21.490Z,1003.12
2017-06-23T05:54:30.438Z,1003.21
2017-06-23T05:55:39.391Z,1003.15
2017-06-23T05:56:48.338Z,1003.18
2017-06-23T05:57:57.288Z,1003.25
2017-06-23T05:59:06.534Z,1003.24
2017-06-23T06:00:15.485Z,1003.22
2017-06-23T06:01:24.526Z,1003.24
2017-06-23T06:02:33.469Z,1003.33
2017-06-23T06:03:42.415Z,1003.33
2017-06-23T06:04:51.662Z,1003.37
2017-06-23T06:06:00.683Z,1003.44
2017-06-23T06:07:09.659Z,1003.47
2017-06-23T06:08:18.602Z,1003.42
2017-06-23T06:09:27.542Z,1003.36
2017-06-23T06:10:36.908Z,1003.42
2017-06-23T06:11:45.855Z,1003.46
2017-06-23T06:12:54.796Z,1003.39
2017-06-23T06:14:03.739Z,1003.5
2017-06-23T06:15:12.686Z,1003.52
2017-06-23T06:16:21.930Z,1003.54
2017-06-23T06:17:30.913Z,1003.56
2017-06-23T06:18:39.872Z,1003.55
2017-06-23T06:19:48.824Z,1003.54
2017-06-23T06:20:57.865Z,1003.6
2017-06-23T06:22:07.116Z,1003.6
2017-06-23T06:23:16.059Z,1003.64
2017-06-23T06:24:25.094Z,1003.7
2017-06-23T06:25:34.038Z,1003.69
2017-06-23T06:26:42.983Z,1003.73
2017-06-23T06:27:52.220Z,1003.74
2017-06-23T06:29:01.203Z,1003.75
2017-06-23T06:30:10.238Z,1003.8
2017-06-23T06:31:19.184Z,1003.78
2017-06-23T06:32:28.226Z,1003.79
2017-06-23T06:33:37.670Z,1003.84
2017-06-23T06:34:46.816Z,1003.8
2017-06-23T06:35:55.787Z,1003.81
2017-06-23T06:37:04.833Z,1003.82
2017-06-23T06:38:13.792Z,1003.81
2017-06-23T06:39:22.990Z,1003.85
2017-06-23T06:40:32.031Z,1003.86
2017-06-23T06:41:41.154Z,1003.84
2017-06-23T06:42:50.247Z,1003.87
2017-06-23T06:43:59.747Z,1003.85
2017-06-23T06:45:09.049Z,1003.91
2017-06-23T06:46:18.253Z,1004
2017-06-23T06:47:27.463Z,1003.94
2017-06-23T06:48:36.530Z,1003.96
2017-06-23T06:49:46.138Z,1004
2017-06-23T06:50:55.519Z,1004.06
2017-06-23T06:52:05.172Z,1004.03
2017-06-23T06:53:14.492Z,1004.1
2017-06-23T06:54:23.488Z,1004.1
2017-06-23T06:55:32.605Z,1004.05
2017-06-23T06:56:41.905Z,1004.08
2017-06-23T06:57:50.967Z,1004.12
2017-06-23T06:58:59.982Z,1004.08
2017-06-23T07:00:09.073Z,1004.15
2017-06-23T07:01:18.188Z,1004.19
2017-06-23T07:02:27.438Z,1004.17
2017-06-23T07:03:36.831Z,1004.24
2017-06-23T07:04:45.943Z,1004.29
2017-06-23T07:05:55.070Z,1004.28
2017-06-23T07:07:04.482Z,1004.3
2017-06-23T07:08:13.856Z,1004.19
2017-06-23T07:09:23.027Z,1004.3
2017-06-23T07:10:32.087Z,1004.42
2017-06-23T07:11:42.099Z,1004.38
2017-06-23T07:13:00.788Z,1004.39
2017-06-23T07:14:21.211Z,1004.39
2017-06-23T07:15:35.191Z,1004.39
2017-06-23T07:16:51.775Z,1004.45
2017-06-23T07:18:01.277Z,1004.45
2017-06-23T07:19:12.858Z,1004.42
2017-06-23T07:20:24.516Z,1004.48
2017-06-23T07:21:33.514Z,1004.45
2017-06-23T07:22:42.468Z,1004.5
2017-06-23T07:23:51.414Z,1004.54
2017-06-23T07:25:00.624Z,1004.51
2017-06-23T07:26:09.653Z,1004.52
2017-06-23T07:27:18.680Z,1004.52
2017-06-23T07:28:27.813Z,1004.6
2017-06-23T07:29:36.946Z,1004.55
2017-06-23T07:30:46.262Z,1004.59
2017-06-23T07:31:55.211Z,1004.59
2017-06-23T07:33:04.159Z,1004.66
2017-06-23T07:34:13.116Z,1004.62
2017-06-23T07:35:22.067Z,1004.56
2017-06-23T07:36:31.266Z,1004.59
2017-06-23T07:37:40.221Z,1004.6
2017-06-23T07:38:49.206Z,1004.67
2017-06-23T07:39:58.155Z,1004.63
2017-06-23T07:41:07.251Z,1004.66
2017-06-23T07:42:16.456Z,1004.69
2017-06-23T07:43:25.407Z,1004.69
2017-06-23T07:44:34.352Z,1004.75
2017-06-23T07:45:43.312Z,1004.73
2017-06-23T07:46:52.261Z,1004.76
2017-06-23T07:48:01.512Z,1004.8
2017-06-23T07:49:10.471Z,1004.77
2017-06-23T07:50:19.420Z,1004.76
2017-06-23T07:51:28.385Z,1004.83
2017-06-23T07:52:44.029Z,1004.81
2017-06-23T07:53:55.816Z,1004.84
2017-06-23T07:55:04.760Z,1004.87
2017-06-23T07:56:13.713Z,1004.87
2017-06-23T07:57:22.665Z,1004.83
2017-06-23T07:58:31.695Z,1004.9
2017-06-23T07:59:40.886Z,1004.83
2017-06-23T08:00:49.832Z,1004.92
2017-06-23T08:01:58.785Z,1004.95
2017-06-23T08:03:08.069Z,1005.02
2017-06-23T08:04:17.106Z,1005.02
2017-06-23T08:05:26.309Z,1005.12
2017-06-23T08:06:35.262Z,1005.03
2017-06-23T08:07:44.212Z,1004.95
2017-06-23T08:08:53.249Z,1004.94
2017-06-23T08:10:02.197Z,1005.04
2017-06-23T08:11:11.390Z,1004.93
2017-06-23T08:12:20.340Z,1005.06
2017-06-23T08:13:29.282Z,1004.99
2017-06-23T08:14:38.222Z,1005.04
2017-06-23T08:15:47.249Z,1004.79
2017-06-23T08:16:56.453Z,1004.94
2017-06-23T08:18:05.400Z,1004.96
2017-06-23T08:19:14.348Z,1004.85
2017-06-23T08:20:23.385Z,1004.92
2017-06-23T08:21:32.333Z,1004.9
2017-06-23T08:22:41.591Z,1004.96
2017-06-23T08:23:50.539Z,1004.95
2017-06-23T08:24:59.491Z,1004.96
2017-06-23T08:26:08.483Z,1004.95
2017-06-23T08:27:17.446Z,1004.94
2017-06-23T08:28:26.782Z,1004.88
2017-06-23T08:29:35.728Z,1004.87
2017-06-23T08:30:44.671Z,1004.91
2017-06-23T08:31:53.620Z,1004.96
2017-06-23T08:33:02.572Z,1004.97
2017-06-23T08:34:12.108Z,1004.87
2017-06-23T08:35:21.064Z,1004.99
2017-06-23T08:36:30.342Z,1004.94
2017-06-23T08:37:39.292Z,1004.92
2017-06-23T08:38:48.240Z,1004.91
2017-06-23T08:39:57.437Z,1005.08
2017-06-23T08:41:06.390Z,1004.95
2017-06-23T08:42:15.328Z,1005.03
2017-06-23T08:43:24.362Z,1005.1
2017-06-23T08:44:33.310Z,1005.02
2017-06-23T08:45:42.562Z,1005.12
2017-06-23T08:46:51.516Z,1005.17
2017-06-23T08:48:00.465Z,1005.15
2017-06-23T08:49:09.442Z,1005.23
2017-06-23T08:50:18.737Z,1005.17
2017-06-23T08:51:27.943Z,1005.18
2017-06-23T08:52:36.888Z,1005.19
2017-06-23T08:53:45.840Z,1005.14
2017-06-23T08:54:54.789Z,1005.15
2017-06-23T08:56:04.073Z,1005.14
2017-06-23T08:57:13.270Z,1005.13
2017-06-23T08:58:22.228Z,1005.22
2017-06-23T08:59:31.184Z,1005.11
2017-06-23T09:00:40.138Z,1005.23
2017-06-23T09:01:49.419Z,1005.2
2017-06-23T09:02:58.625Z,1005.32
2017-06-23T09:04:07.569Z,1005.25
2017-06-23T09:05:16.520Z,1005.27
2017-06-23T09:06:25.475Z,1005.31
2017-06-23T09:07:34.421Z,1005.29
2017-06-23T09:08:43.621Z,1005.29
2017-06-23T09:09:52.570Z,1005.32
2017-06-23T09:11:01.509Z,1005.3
2017-06-23T09:12:10.463Z,1005.43
2017-06-23T09:13:19.412Z,1005.38
2017-06-23T09:14:28.619Z,1005.3
2017-06-23T09:15:37.890Z,1005.38
2017-06-23T09:16:46.834Z,1005.41
2017-06-23T09:17:55.778Z,1005.41
2017-06-23T09:19:04.727Z,1005.4
2017-06-23T09:20:13.931Z,1005.38
2017-06-23T09:21:22.882Z,1005.45
2017-06-23T09:22:31.831Z,1005.39
2017-06-23T09:23:40.780Z,1005.43
2017-06-23T09:24:49.726Z,1005.48
2017-06-23T09:25:59.014Z,1005.52
2017-06-23T09:27:07.966Z,1005.4
2017-06-23T09:28:16.931Z,1005.48
2017-06-23T09:29:25.885Z,1005.5
2017-06-23T09:30:34.836Z,1005.42
2017-06-23T09:31:44.037Z,1005.39
2017-06-23T09:32:52.997Z,1005.4
2017-06-23T09:34:01.941Z,1005.41
2017-06-23T09:35:10.892Z,1005.49
2017-06-23T09:36:19.838Z,1005.36
2017-06-23T09:37:29.037Z,1005.52
2017-06-23T09:38:37.983Z,1005.47
2017-06-23T09:39:46.937Z,1005.47
2017-06-23T09:40:56.329Z,1005.46
2017-06-23T09:42:05.289Z,1005.55
2017-06-23T09:43:14.541Z,1005.52
2017-06-23T09:44:23.485Z,1005.55
2017-06-23T09:45:32.510Z,1005.46
2017-06-23T09:46:41.870Z,1005.48
2017-06-23T09:47:50.911Z,1005.47
2017-06-23T09:49:00.106Z,1005.46
2017-06-23T09:50:09.066Z,1005.5
2017-06-23T09:51:18.011Z,1005.46
2017-06-23T09:52:26.961Z,1005.47
2017-06-23T09:53:35.911Z,1005.51
2017-06-23T09:54:45.435Z,1005.49
2017-06-23T09:55:54.382Z,1005.5
2017-06-23T09:57:03.332Z,1005.52
2017-06-23T09:58:12.279Z,1005.51
2017-06-23T09:59:21.227Z,1005.53
2017-06-23T10:00:30.432Z,1005.44
2017-06-23T10:01:39.390Z,1005.48
2017-06-23T10:02:48.337Z,1005.45
2017-06-23T10:03:57.291Z,1005.55
2017-06-23T10:05:06.244Z,1005.5
2017-06-23T10:06:15.494Z,1005.52
2017-06-23T10:07:24.444Z,1005.44
2017-06-23T10:08:33.393Z,1005.51
2017-06-23T10:09:42.678Z,1005.52
2017-06-23T10:10:51.627Z,1005.54
2017-06-23T10:12:00.833Z,1005.42
2017-06-23T10:13:09.782Z,1005.51
2017-06-23T10:14:18.729Z,1005.58
2017-06-23T10:15:27.674Z,1005.57
2017-06-23T10:16:36.947Z,1005.58
2017-06-23T10:17:46.149Z,1005.61
2017-06-23T10:18:55.104Z,1005.56
2017-06-23T10:20:04.060Z,1005.57
2017-06-23T10:21:13.006Z,1005.64
2017-06-23T10:22:21.951Z,1005.67
2017-06-23T10:23:31.201Z,1005.65
2017-06-23T10:24:40.151Z,1005.63
2017-06-23T10:25:49.107Z,1005.69
2017-06-23T10:26:58.477Z,1005.67
2017-06-23T10:28:07.433Z,1005.73
2017-06-23T10:29:16.677Z,1005.7
2017-06-23T10:30:25.637Z,1005.77
2017-06-23T10:31:34.593Z,1005.78
2017-06-23T10:32:43.540Z,1005.74
2017-06-23T10:33:52.482Z,1005.72
2017-06-23T10:35:01.679Z,1005.8
2017-06-23T10:36:10.625Z,1005.84
2017-06-23T10:37:19.570Z,1005.8
2017-06-23T10:38:28.516Z,1005.75
2017-06-23T10:39:37.475Z,1005.8
2017-06-23T10:40:46.760Z,1005.88
2017-06-23T10:41:55.709Z,1005.89
2017-06-23T10:43:04.979Z,1005.92
2017-06-23T10:44:13.928Z,1005.86
2017-06-23T10:45:22.894Z,1005.85
2017-06-23T10:46:32.142Z,1005.93
2017-06-23T10:47:41.091Z,1005.9
2017-06-23T10:48:50.038Z,1005.82
2017-06-23T10:49:58.991Z,1005.87
2017-06-23T10:51:07.935Z,1005.84
2017-06-23T10:52:17.143Z,1005.8
2017-06-23T10:53:26.097Z,1005.86
2017-06-23T10:54:35.043Z,1005.81
2017-06-23T10:55:43.991Z,1005.83
2017-06-23T10:56:52.940Z,1005.87
2017-06-23T10:58:02.145Z,1005.81
2017-06-23T10:59:11.183Z,1005.87
2017-06-23T11:00:20.136Z,1005.83
2017-06-23T11:01:29.088Z,1005.88
2017-06-23T11:02:38.053Z,1005.82
2017-06-23T11:03:47.303Z,1005.87
2017-06-23T11:04:56.256Z,1005.87
2017-06-23T11:06:05.204Z,1005.89
2017-06-23T11:07:14.156Z,1005.92
2017-06-23T11:08:23.108Z,1005.88
2017-06-23T11:09:32.352Z,1005.89
2017-06-23T11:10:41.306Z,1005.93
2017-06-23T11:11:50.261Z,1005.92
2017-06-23T11:12:59.215Z,1005.96
2017-06-23T11:14:08.178Z,1005.92
2017-06-23T11:15:17.386Z,1005.93
2017-06-23T11:16:26.333Z,1005.91
2017-06-23T11:17:35.289Z,1005.93
2017-06-23T11:18:44.229Z,1005.95
2017-06-23T11:19:53.172Z,1006.02
2017-06-23T11:21:02.367Z,1006.04
2017-06-23T11:22:11.315Z,1006.08
2017-06-23T11:23:20.268Z,1006.04
2017-06-23T11:24:29.216Z,1006.01
2017-06-23T11:25:38.164Z,1006.13
2017-06-23T11:26:47.371Z,1006.01
2017-06-23T11:27:56.316Z,1006.03
2017-06-23T11:29:05.583Z,1006.03
2017-06-23T11:30:14.541Z,1006.07
2017-06-23T11:31:23.512Z,1006.04
2017-06-23T11:32:32.764Z,1006.03
2017-06-23T11:33:41.725Z,1006.02
2017-06-23T11:34:50.675Z,1006.04
2017-06-23T11:35:59.631Z,1006.11
2017-06-23T11:37:08.589Z,1006.08
2017-06-23T11:38:17.796Z,1006.09
2017-06-23T11:39:26.835Z,1006.1
2017-06-23T11:40:35.787Z,1006.09
2017-06-23T11:41:44.737Z,1006.12
2017-06-23T11:42:53.731Z,1006.13
2017-06-23T11:44:02.937Z,1006.16
2017-06-23T11:45:11.882Z,1006.17
2017-06-23T11:46:20.834Z,1006.21
2017-06-23T11:47:29.798Z,1006.19
2017-06-23T11:48:38.749Z,1006.19
2017-06-23T11:49:48.003Z,1006.2
2017-06-23T11:50:56.960Z,1006.19
2017-06-23T11:52:05.907Z,1006.2
2017-06-23T11:53:14.861Z,1006.23
2017-06-23T11:54:23.814Z,1006.25
2017-06-23T11:55:33.018Z,1006.31
2017-06-23T11:56:41.990Z,1006.23
2017-06-23T11:57:51.683Z,1006.25
2017-06-23T11:59:00.640Z,1006.28
2017-06-23T12:00:09.593Z,1006.23
2017-06-23T12:01:18.801Z,1006.28
2017-06-23T12:02:27.753Z,1006.21
2017-06-23T12:03:36.704Z,1006.25
2017-06-23T12:04:45.649Z,1006.28
2017-06-23T12:05:54.603Z,1006.24
2017-06-23T12:07:03.812Z,1006.28
2017-06-23T12:08:12.768Z,1006.36
2017-06-23T12:09:21.722Z,1006.33
2017-06-23T12:10:30.678Z,1006.33
2017-06-23T12:11:39.626Z,1006.31
2017-06-23T12:12:48.829Z,1006.33
2017-06-23T12:13:57.779Z,1006.37
2017-06-23T12:15:06.725Z,1006.41
2017-06-23T12:16:15.699Z,1006.4
2017-06-23T12:17:24.659Z,1006.47
2017-06-23T12:18:33.871Z,1006.45
2017-06-23T12:19:42.832Z,1006.47
2017-06-23T12:20:51.792Z,1006.53
2017-06-23T12:22:00.741Z,1006.47
2017-06-23T12:23:09.698Z,1006.46
2017-06-23T12:24:18.900Z,1006.53
2017-06-23T12:25:27.855Z,1006.54
2017-06-23T12:26:36.814Z,1006.53
2017-06-23T12:27:45.763Z,1006.54
2017-06-23T12:28:54.800Z,1006.57
2017-06-23T12:30:03.999Z,1006.6
2017-06-23T12:31:12.954Z,1006.68
2017-06-23T12:32:21.907Z,1006.71
2017-06-23T12:33:30.944Z,1006.59
2017-06-23T12:34:39.897Z,1006.58
2017-06-23T12:35:49.099Z,1006.59
2017-06-23T12:36:58.139Z,1006.59
2017-06-23T12:38:07.094Z,1006.59
2017-06-23T12:39:16.044Z,1006.6
2017-06-23T12:40:24.996Z,1006.61
2017-06-23T12:41:34.199Z,1006.72
2017-06-23T12:42:43.155Z,1006.72
2017-06-23T12:43:52.102Z,1006.63
2017-06-23T12:45:01.054Z,1006.74
2017-06-23T12:46:10.012Z,1006.68
2017-06-23T12:47:19.215Z,1006.72
2017-06-23T12:48:28.180Z,1006.72
2017-06-23T12:49:37.219Z,1006.71
2017-06-23T12:50:46.175Z,1006.7
2017-06-23T12:51:55.129Z,1006.65
2017-06-23T12:53:04.386Z,1006.71
2017-06-23T12:54:13.333Z,1006.69
2017-06-23T12:55:22.289Z,1006.7
2017-06-23T12:56:31.241Z,1006.75
2017-06-23T12:57:40.200Z,1006.75
2017-06-23T12:58:49.458Z,1006.72
2017-06-23T12:59:58.417Z,1006.72
2017-06-23T13:01:07.373Z,1006.76
2017-06-23T13:02:16.326Z,1006.8
2017-06-23T13:03:25.281Z,1006.83
2017-06-23T13:04:34.805Z,1006.79
2017-06-23T13:05:43.761Z,1006.85
2017-06-23T13:06:52.711Z,1006.83
2017-06-23T13:08:01.668Z,1006.91
2017-06-23T13:09:10.619Z,1006.81
2017-06-23T13:10:19.824Z,1006.92
2017-06-23T13:11:28.774Z,1006.89
2017-06-23T13:12:38.046Z,1006.83
2017-06-23T13:13:47.000Z,1006.93
2017-06-23T13:14:55.953Z,1006.86
2017-06-23T13:16:05.166Z,1006.89
2017-06-23T13:17:14.439Z,1006.96
2017-06-23T13:18:23.390Z,1007
2017-06-23T13:19:32.351Z,1006.98
2017-06-23T13:20:41.307Z,1007.01
2017-06-23T13:21:50.511Z,1007.05
2017-06-23T13:22:59.466Z,1006.98
2017-06-23T13:24:08.427Z,1007.01
2017-06-23T13:25:17.382Z,1006.99
2017-06-23T13:26:26.336Z,1007.06
2017-06-23T13:27:35.622Z,1007
2017-06-23T13:28:44.997Z,1006.99
2017-06-23T13:29:54.042Z,1007
2017-06-23T13:31:03.153Z,1007.04
2017-06-23T13:32:12.106Z,1006.99
2017-06-23T13:33:21.316Z,1007.01
2017-06-23T13:34:30.266Z,1007.12
2017-06-23T13:35:39.218Z,1007.06
2017-06-23T13:36:48.174Z,1007.08
2017-06-23T13:37:57.140Z,1007.13
2017-06-23T13:39:06.373Z,1007.12
2017-06-23T13:40:15.328Z,1007.22
2017-06-23T13:41:24.286Z,1007.15
2017-06-23T13:42:33.250Z,1007.19
2017-06-23T13:43:42.202Z,1007.2
2017-06-23T13:44:51.454Z,1007.12
2017-06-23T13:46:00.415Z,1007.15
2017-06-23T13:47:09.359Z,1007.17
2017-06-23T13:48:18.392Z,1007.22
2017-06-23T13:49:27.350Z,1007.2
2017-06-23T13:50:36.556Z,1007.18
2017-06-23T13:51:45.853Z,1007.26
2017-06-23T13:52:54.805Z,1007.27
2017-06-23T13:54:03.845Z,1007.24
2017-06-23T13:55:12.794Z,1007.3
2017-06-23T13:56:22.042Z,1007.25
2017-06-23T13:57:30.991Z,1007.33
2017-06-23T13:58:40.033Z,1007.32
2017-06-23T13:59:48.985Z,1007.29
2017-06-23T14:00:57.937Z,1007.34
2017-06-23T14:02:07.185Z,1007.37